createdAt,value
2023-03-22T00:01:05.469Z,111
2023-03-22T00:16:05.556Z,114
2023-03-22T00:31:05.966Z,124
2023-03-22T00:46:05.514Z,133
2023-03-22T01:01:05.840Z,135
2023-03-22T01:16:05.080Z,149
2023-03-22T01:31:05.449Z,153
2023-03-22T01:46:05.945Z,159
2023-03-22T02:01:05.553Z,176
2023-03-22T02:16:05.843Z,179
2023-03-22T02:31:05.875Z,188
2023-03-22T02:46:05.283Z,190
2023-03-22T03:01:05.910Z,184
2023-03-22T03:16:05.389Z,156
2023-03-22T03:31:05.008Z,182
2023-03-22T03:46:05.779Z,151
2023-03-22T04:01:05.704Z,145
2023-03-22T04:16:04.935Z,134
2023-03-22T04:31:06.013Z,134
2023-03-22T04:46:05.828Z,138
2023-03-22T05:01:05.219Z,158
2023-03-22T05:16:05.850Z,121
2023-03-22T05:31:04.970Z,123
2023-03-22T05:46:05.442Z,123
2023-03-22T06:01:05.662Z,117
2023-03-22T06:16:04.997Z,111
2023-03-22T06:31:05.802Z,116
2023-03-22T06:46:05.365Z,111
2023-03-22T07:01:14.012Z,108
2023-03-22T07:16:05.050Z,99
2023-03-22T07:31:06.029Z,83
2023-03-22T07:46:05.890Z,71
2023-03-22T08:01:05.699Z,72
2023-03-22T08:16:05.658Z,60
2023-03-22T08:31:05.169Z,61
2023-03-22T08:46:06.130Z,58
2023-03-22T09:01:05.041Z,42
2023-03-22T09:16:05.995Z,37
2023-03-22T09:31:05.624Z,40
2023-03-22T09:46:05.210Z,41
2023-03-22T10:01:05.737Z,43
2023-03-22T10:16:04.900Z,32
2023-03-22T10:31:06.348Z,31
2023-03-22T10:46:05.749Z,30
2023-03-22T11:01:06.131Z,27
2023-03-22T11:16:06.006Z,22
2023-03-22T11:31:05.230Z,21
2023-03-22T11:46:05.377Z,17
2023-03-22T12:01:05.414Z,14
2023-03-22T12:16:05.796Z,13
2023-03-22T12:31:05.372Z,15
2023-03-22T12:46:05.289Z,13
2023-03-22T13:01:05.747Z,11
2023-03-22T13:16:05.591Z,14
2023-03-22T13:31:05.187Z,10
2023-03-22T13:46:05.755Z,9
2023-03-22T14:01:05.906Z,10
2023-03-22T14:16:06.008Z,9
2023-03-22T15:01:05.294Z,11
2023-03-22T15:16:04.942Z,12
2023-03-22T15:31:05.502Z,13
2023-03-22T15:46:06.097Z,16
2023-03-22T16:01:05.384Z,10
2023-03-22T16:16:05.672Z,12
2023-03-22T16:31:05.354Z,11
2023-03-22T16:46:05.894Z,15
2023-03-22T17:01:05.207Z,15
2023-03-22T17:16:04.752Z,31
2023-03-22T17:31:05.117Z,21
2023-03-22T17:47:17.319Z,30
2023-03-22T18:01:05.338Z,40
2023-03-22T18:16:05.698Z,67
2023-03-22T18:31:05.528Z,61
2023-03-22T18:46:19.501Z,38
2023-03-22T19:01:05.192Z,27
2023-03-22T19:31:05.016Z,25
2023-03-22T19:46:05.455Z,27
2023-03-22T20:16:05.991Z,26
2023-03-22T20:31:05.464Z,27
2023-03-22T20:46:05.333Z,29
2023-03-22T21:01:04.998Z,30
2023-03-22T21:16:04.939Z,28
2023-03-22T21:31:05.264Z,23
2023-03-22T21:46:05.634Z,24
2023-03-22T22:01:05.309Z,24
2023-03-22T22:16:05.681Z,25
2023-03-22T22:31:05.449Z,28
2023-03-22T22:46:05.563Z,27
2023-03-22T23:01:05.553Z,25
2023-03-22T23:16:05.583Z,37
2023-03-22T23:31:05.940Z,28
2023-03-22T23:46:05.481Z,32
